Time;durP1;ratioP1;P1;durP2;ratioP2;P2;SDS_P1;SDS_P2;PMS_P1;PMS_P2;Temp;Humidity;BMP_temperature;BMP_pressure;BME280_temperature;BME280_humidity;BME280_pressure;Samples;Min_cycle;Max_cycle;Signal;HPM_P1;HPM_P2
2023/01/22 00:01:01;;;;;;;17.15;5.68;;;;;;;-3.11;65.35;101124.94;5089654;28;20040;-51
2023/01/22 00:03:27;;;;;;;15.10;5.53;;;;;;;-3.11;65.13;101126.63;5089851;28;20062;-48
2023/01/22 00:05:53;;;;;;;15.75;5.47;;;;;;;-3.33;65.57;101093.41;5091130;28;20039;-48
2023/01/22 00:08:19;;;;;;;17.10;5.15;;;;;;;-3.32;65.80;101105.34;5088986;28;20040;-48
2023/01/22 00:10:50;;;;;;;11.13;5.53;;;;;;;-3.18;65.89;101133.09;5077611;28;20081;-47
2023/01/22 00:13:15;;;;;;;15.98;5.63;;;;;;;-3.35;65.86;101098.47;5089992;28;20050;-51
2023/01/22 00:15:41;;;;;;;16.00;5.85;;;;;;;-3.13;66.04;101118.91;5090680;28;20040;-48
2023/01/22 00:18:07;;;;;;;11.40;4.15;;;;;;;-3.27;65.95;101091.16;5089510;28;20063;-50
2023/01/22 00:20:33;;;;;;;11.18;4.40;;;;;;;-3.13;65.95;101124.00;5088355;28;20501;-50
2023/01/22 00:22:59;;;;;;;11.07;4.50;;;;;;;-3.14;66.25;101124.81;5090742;28;20399;-47
2023/01/22 00:25:25;;;;;;;14.10;5.32;;;;;;;-3.14;65.97;101123.97;5071511;28;20051;-48
2023/01/22 00:27:51;;;;;;;14.10;5.63;;;;;;;-3.07;66.14;101124.28;5077664;28;20046;-46
2023/01/22 00:30:16;;;;;;;14.15;5.50;;;;;;;-3.02;65.80;101127.88;5074545;28;20045;-49
2023/01/22 00:32:44;;;;;;;14.73;5.50;;;;;;;-2.97;65.52;101120.44;5071777;28;20036;-49
2023/01/22 00:35:10;;;;;;;11.95;4.97;;;;;;;-2.93;65.82;101122.31;5090238;28;20468;-48
2023/01/22 00:37:36;;;;;;;10.15;4.55;;;;;;;-2.90;65.66;101117.38;5088948;28;20089;-46
2023/01/22 00:40:02;;;;;;;12.57;5.00;;;;;;;-2.85;65.67;101117.56;5076596;28;20040;-47
2023/01/22 00:42:30;;;;;;;15.85;5.03;;;;;;;-2.79;65.68;101118.69;5068763;28;20036;-45
2023/01/22 00:44:58;;;;;;;13.60;5.28;;;;;;;-2.99;65.67;101076.28;5089257;28;20061;-48
2023/01/22 00:47:25;;;;;;;17.45;5.13;;;;;;;-2.75;65.60;101105.28;5109343;28;20035;-47
2023/01/22 00:49:51;;;;;;;17.70;5.85;;;;;;;-2.70;65.36;101108.88;5098414;28;20122;-48
2023/01/22 00:52:16;;;;;;;13.93;5.30;;;;;;;-2.65;65.52;101114.16;5088664;28;20189;-48
2023/01/22 00:54:44;;;;;;;15.32;5.25;;;;;;;-2.64;65.33;101114.25;5080371;28;20040;-48
2023/01/22 00:57:10;;;;;;;11.90;5.43;;;;;;;-2.59;65.50;101122.06;5086140;28;20487;-48
2023/01/22 00:59:36;;;;;;;13.05;5.38;;;;;;;-2.57;65.29;101106.06;5083050;28;20086;-46
2023/01/22 01:02:02;;;;;;;15.10;4.90;;;;;;;-2.50;65.40;101112.25;5077572;28;20614;-50
2023/01/22 01:04:28;;;;;;;17.63;5.57;;;;;;;-2.47;65.27;101112.38;5069558;28;20077;-48
2023/01/22 01:06:54;;;;;;;14.30;5.80;;;;;;;-2.44;65.10;101116.72;5069507;28;20036;-47
2023/01/22 01:09:20;;;;;;;14.30;5.53;;;;;;;-2.42;65.15;101113.44;5085714;28;20476;-48
2023/01/22 01:11:46;;;;;;;10.88;4.80;;;;;;;-2.29;65.08;101118.22;5088752;28;20039;-48
2023/01/22 01:14:12;;;;;;;12.93;5.07;;;;;;;-2.25;65.22;101114.13;5088404;28;20047;-46
2023/01/22 01:16:42;;;;;;;14.00;5.35;;;;;;;-2.22;64.72;101126.97;5071816;28;20036;-49
2023/01/22 01:19:09;;;;;;;15.00;5.68;;;;;;;-2.22;64.52;101125.31;5087863;28;20040;-46
2023/01/22 01:21:36;;;;;;;11.27;4.90;;;;;;;-2.24;64.83;101120.94;5071425;28;20040;-54
2023/01/22 01:24:02;;;;;;;14.43;5.28;;;;;;;-2.17;64.89;101128.03;5088176;28;20086;-48
2023/01/22 01:26:28;;;;;;;16.70;5.47;;;;;;;-2.27;64.91;101118.28;5069874;28;20159;-49
2023/01/22 01:28:55;;;;;;;11.13;5.47;;;;;;;-2.25;64.86;101122.59;5067998;28;20519;-49
2023/01/22 01:31:22;;;;;;;11.20;5.03;;;;;;;-2.22;64.89;101132.94;5087728;28;20811;-53
2023/01/22 01:33:48;;;;;;;15.93;6.00;;;;;;;-2.20;64.72;101131.31;5088087;28;20040;-50
2023/01/22 01:36:20;;;;;;;14.15;5.95;;;;;;;-2.45;64.78;101081.88;5088397;28;20604;-55
2023/01/22 01:38:46;;;;;;;10.30;4.43;;;;;;;-2.40;64.87;101100.75;5089324;28;20058;-47
2023/01/22 01:41:15;;;;;;;10.52;4.80;;;;;;;-2.26;65.22;101128.53;5073607;28;20036;-49
2023/01/22 01:43:41;;;;;;;21.58;5.85;;;;;;;-2.23;65.00;101123.56;5051181;28;20036;-49
2023/01/22 01:46:17;;;;;;;13.38;5.28;;;;;;;-2.20;64.94;101126.22;5068886;28;20037;-46
2023/01/22 01:48:47;;;;;;;12.70;4.45;;;;;;;-2.16;64.86;101134.88;5067806;28;20794;-47
2023/01/22 01:51:12;;;;;;;17.75;6.60;;;;;;;-2.18;64.86;101123.72;5079505;28;20043;-47
2023/01/22 01:53:39;;;;;;;13.32;5.32;;;;;;;-2.12;65.07;101131.63;5088218;28;20035;-50
2023/01/22 01:56:13;;;;;;;13.60;5.85;;;;;;;-2.12;65.04;101129.06;5085271;28;20044;-48
2023/01/22 01:58:41;;;;;;;13.45;5.45;;;;;;;-2.11;65.17;101125.72;5071206;28;20032;-48
2023/01/22 02:01:13;;;;;;;14.60;5.95;;;;;;;-2.08;65.52;101135.16;5070765;28;20116;-48
2023/01/22 02:03:39;;;;;;;16.35;6.20;;;;;;;-2.13;65.33;101125.66;5088996;28;20173;-46
2023/01/22 02:06:09;;;;;;;16.67;6.18;;;;;;;-2.09;65.34;101134.28;5054232;28;20040;-49
2023/01/22 02:08:35;;;;;;;17.48;6.28;;;;;;;-2.04;65.22;101139.59;5068510;28;20054;-47
2023/01/22 02:11:02;;;;;;;15.30;6.00;;;;;;;-2.16;65.12;101101.75;5086122;28;20040;-51
2023/01/22 02:13:31;;;;;;;16.60;5.65;;;;;;;-1.90;65.00;101130.78;5104648;28;20419;-47
2023/01/22 02:15:58;;;;;;;14.25;5.80;;;;;;;-2.23;65.23;101103.19;5071060;28;20046;-46
2023/01/22 02:18:26;;;;;;;17.55;6.43;;;;;;;-2.37;65.31;101098.34;5074257;28;20044;-50
2023/01/22 02:20:57;;;;;;;15.85;6.03;;;;;;;-2.52;65.79;101097.72;5068602;28;20396;-48
2023/01/22 02:23:23;;;;;;;13.75;5.28;;;;;;;-2.43;66.22;101132.06;5066730;28;20041;-46
2023/01/22 02:25:49;;;;;;;16.05;6.25;;;;;;;-2.50;66.56;101126.66;5068475;28;20041;-47
2023/01/22 02:28:15;;;;;;;16.13;5.85;;;;;;;-2.73;66.43;101090.09;5050255;28;20123;-47
2023/01/22 02:30:43;;;;;;;15.57;5.57;;;;;;;-2.59;66.57;101128.03;5067282;28;20147;-49
2023/01/22 02:33:14;;;;;;;19.13;6.15;;;;;;;-2.64;66.88;101131.19;5067419;28;20044;-45
2023/01/22 02:35:42;;;;;;;14.82;5.47;;;;;;;-2.93;67.40;101096.88;5084147;28;20039;-44
2023/01/22 02:38:08;;;;;;;15.02;6.80;;;;;;;-2.74;67.46;101131.59;5070476;28;20105;-49
2023/01/22 02:40:34;;;;;;;20.10;6.88;;;;;;;-2.77;67.68;101132.34;5076484;28;20141;-51
2023/01/22 02:43:00;;;;;;;14.57;6.18;;;;;;;-3.00;67.69;101100.84;5069220;28;20092;-48
2023/01/22 02:45:26;;;;;;;18.05;6.05;;;;;;;-2.80;68.01;101133.88;5091267;28;20047;-47
2023/01/22 02:47:52;;;;;;;15.95;6.50;;;;;;;-2.80;68.03;101141.53;5091314;28;20040;-49
2023/01/22 02:50:18;;;;;;;15.10;5.78;;;;;;;-2.81;68.10;101139.78;5090893;28;20043;-45
2023/01/22 02:52:44;;;;;;;15.38;7.22;;;;;;;-2.85;68.38;101135.38;5091316;28;20046;-49
2023/01/22 02:55:11;;;;;;;16.98;6.35;;;;;;;-2.85;68.40;101143.88;5089225;28;20065;-46
2023/01/22 02:57:39;;;;;;;17.27;6.65;;;;;;;-2.85;68.51;101146.41;5091082;28;20892;-48
2023/01/22 03:00:05;;;;;;;14.32;6.28;;;;;;;-2.88;68.64;101143.75;5091294;28;20134;-46
2023/01/22 03:02:31;;;;;;;18.42;6.65;;;;;;;-2.86;68.96;101153.97;5108016;28;20044;-46
2023/01/22 03:05:02;;;;;;;15.25;5.95;;;;;;;-2.89;68.88;101151.31;5066614;28;20656;-47
2023/01/22 03:07:40;;;;;;;18.77;7.15;;;;;;;-2.90;68.91;101157.22;5072185;28;20169;-49
2023/01/22 03:10:12;;;;;;;18.58;7.63;;;;;;;-2.98;69.01;101139.06;5053969;28;20042;-48
2023/01/22 03:23:37;;;;;;;11.13;5.15;;;;;;;-2.82;69.45;101163.47;5089282;28;20040;-46
2023/01/22 03:26:04;;;;;;;19.48;7.18;;;;;;;-2.77;69.51;101160.31;5089777;28;20039;-49
2023/01/22 03:28:30;;;;;;;17.27;7.18;;;;;;;-2.69;69.20;101165.75;5073596;28;20055;-47
2023/01/22 03:30:56;;;;;;;17.10;7.53;;;;;;;-2.68;69.31;101155.66;5090519;28;20036;-50
2023/01/22 03:33:23;;;;;;;17.83;7.30;;;;;;;-2.83;69.36;101127.00;5069694;28;20476;-50
2023/01/22 03:35:49;;;;;;;19.65;7.20;;;;;;;-2.64;69.12;101165.16;5086293;28;20051;-45
2023/01/22 03:38:18;;;;;;;16.02;7.40;;;;;;;-2.65;69.25;101160.84;5056598;28;20079;-48
2023/01/22 03:40:45;;;;;;;18.50;8.02;;;;;;;-2.62;69.29;101160.97;5080924;28;20048;-47
2023/01/22 03:43:11;;;;;;;17.65;7.32;;;;;;;-2.59;69.06;101163.66;5053174;28;20047;-48
2023/01/22 03:45:37;;;;;;;21.08;7.90;;;;;;;-2.57;68.99;101166.28;5086716;28;20102;-48
2023/01/22 03:48:04;;;;;;;20.83;7.30;;;;;;;-2.68;68.88;101147.16;5086845;28;20698;-46
2023/01/22 03:50:35;;;;;;;19.30;7.63;;;;;;;-2.56;69.08;101145.09;5086848;28;20420;-46
2023/01/22 03:53:02;;;;;;;18.33;7.93;;;;;;;-2.32;68.88;101173.25;5088186;28;20048;-50
2023/01/22 03:55:30;;;;;;;17.55;7.60;;;;;;;-2.25;68.57;101165.91;5067824;28;20543;-50
2023/01/22 03:57:56;;;;;;;17.17;7.45;;;;;;;-2.18;68.65;101164.50;5086384;28;20057;-52
2023/01/22 04:00:23;;;;;;;18.05;7.18;;;;;;;-2.06;68.44;101180.28;5076582;28;20546;-47
2023/01/22 04:02:49;;;;;;;18.92;6.97;;;;;;;-2.40;68.30;101116.03;5089624;28;20075;-49
2023/01/22 04:05:23;;;;;;;17.25;7.80;;;;;;;-2.37;67.84;101117.03;5089543;28;20043;-49
2023/01/22 04:07:49;;;;;;;21.65;7.78;;;;;;;-1.99;68.22;101183.94;5089706;28;20047;-47
2023/01/22 04:10:17;;;;;;;19.23;7.88;;;;;;;-2.00;68.02;101183.09;5089325;28;20126;-48
2023/01/22 04:12:44;;;;;;;18.88;6.95;;;;;;;-1.97;68.02;101180.63;5089618;28;20118;-47
2023/01/22 04:15:13;;;;;;;19.23;6.57;;;;;;;-1.97;67.91;101183.19;5072651;28;20055;-50
2023/01/22 04:17:39;;;;;;;16.98;7.15;;;;;;;-1.98;68.00;101191.63;5072531;28;20036;-49
2023/01/22 04:20:27;;;;;;;19.02;8.07;;;;;;;-1.94;67.85;101190.09;5079678;28;20060;-47
2023/01/22 04:22:58;;;;;;;20.05;7.03;;;;;;;-1.83;67.81;101187.13;5069171;28;20067;-47
2023/01/22 04:25:24;;;;;;;14.88;6.15;;;;;;;-1.78;67.55;101189.91;5072929;28;20174;-49
2023/01/22 04:27:51;;;;;;;21.35;7.43;;;;;;;-1.83;67.53;101188.81;5072598;28;20803;-48
2023/01/22 04:30:18;;;;;;;17.88;7.32;;;;;;;-1.89;67.76;101192.03;5055034;28;20427;-47
2023/01/22 04:32:47;;;;;;;19.48;7.78;;;;;;;-1.86;67.77;101191.25;5069204;28;20127;-47
2023/01/22 04:35:22;;;;;;;24.95;7.82;;;;;;;-1.84;67.67;101182.88;5068881;28;20055;-47
2023/01/22 04:37:57;;;;;;;18.98;7.00;;;;;;;-1.76;67.58;101190.81;5068789;28;20061;-49
2023/01/22 04:40:23;;;;;;;17.88;7.32;;;;;;;-1.74;67.63;101195.19;5052953;28;20040;-49
2023/01/22 04:42:49;;;;;;;16.13;6.82;;;;;;;-1.72;67.53;101198.63;5069220;28;20117;-47
2023/01/22 04:45:15;;;;;;;19.88;8.15;;;;;;;-1.81;67.38;101164.28;5052092;28;20139;-50
2023/01/22 04:47:44;;;;;;;20.67;8.10;;;;;;;-1.62;67.48;101199.84;5051671;28;20131;-50
2023/01/22 04:50:19;;;;;;;17.20;7.50;;;;;;;-1.56;67.50;101195.00;5068713;28;20074;-47
2023/01/22 04:52:46;;;;;;;18.98;7.53;;;;;;;-1.60;67.15;101195.69;5068640;28;20123;-47
2023/01/22 04:55:12;;;;;;;13.95;6.72;;;;;;;-1.60;67.09;101211.00;5090249;28;20071;-48
2023/01/22 04:57:46;;;;;;;10.35;4.78;;;;;;;-1.61;67.22;101211.81;5067793;28;20127;-47
2023/01/22 05:00:13;;;;;;;19.95;7.20;;;;;;;-1.70;67.10;101201.25;5068934;28;20150;-50
2023/01/22 05:02:39;;;;;;;16.85;7.30;;;;;;;-1.66;67.39;101202.22;5099199;28;20537;-48
2023/01/22 05:05:07;;;;;;;21.05;8.60;;;;;;;-1.57;67.47;101210.25;5088573;28;20507;-46
2023/01/22 05:07:34;;;;;;;19.77;7.97;;;;;;;-1.52;67.24;101198.56;5089618;28;20511;-47
2023/01/22 05:10:00;;;;;;;23.70;8.65;;;;;;;-1.52;66.88;101204.53;5089648;28;20043;-46
2023/01/22 05:12:28;;;;;;;28.92;8.18;;;;;;;-1.41;67.10;101217.66;5073370;28;20040;-48
2023/01/22 05:14:54;;;;;;;17.08;6.53;;;;;;;-1.65;66.89;101186.13;5068111;28;20072;-46
2023/01/22 05:17:21;;;;;;;16.85;7.88;;;;;;;-1.48;67.07;101219.13;5094026;28;20051;-49
2023/01/22 05:19:47;;;;;;;20.90;8.10;;;;;;;-1.49;66.94;101219.94;5051351;28;20044;-46
2023/01/22 05:22:17;;;;;;;18.10;7.22;;;;;;;-1.49;66.91;101226.72;5068188;28;20041;-48
2023/01/22 05:24:43;;;;;;;22.92;7.63;;;;;;;-1.54;66.91;101221.44;5067840;28;20044;-49
2023/01/22 05:27:10;;;;;;;18.27;7.03;;;;;;;-1.65;67.26;101193.78;5051670;28;20140;-48
2023/01/22 05:29:47;;;;;;;18.75;6.95;;;;;;;-1.86;66.81;101156.44;5067970;28;20050;-49
2023/01/22 05:32:55;;;;;;;19.65;7.50;;;;;;;-1.42;67.02;101228.69;5056391;28;20048;-47
2023/01/22 05:35:21;;;;;;;27.75;8.27;;;;;;;-1.41;66.91;101241.50;5068662;28;20118;-49
2023/01/22 05:37:48;;;;;;;20.95;7.22;;;;;;;-1.31;66.71;101246.13;5087284;28;20047;-47
2023/01/22 05:40:14;;;;;;;21.48;8.45;;;;;;;-1.35;66.81;101244.28;5108164;28;20051;-48
2023/01/22 05:42:41;;;;;;;21.75;8.05;;;;;;;-1.34;66.79;101232.41;5073772;28;20435;-51
2023/01/22 05:45:10;;;;;;;15.75;7.47;;;;;;;-1.32;66.64;101241.88;5067747;28;20048;-52
2023/01/22 05:47:50;;;;;;;19.25;7.93;;;;;;;-1.44;66.58;101217.56;5067722;28;20120;-43
2023/01/22 05:50:35;;;;;;;20.40;7.78;;;;;;;-1.35;66.78;101254.47;5074526;28;20036;-48
2023/01/22 05:53:07;;;;;;;21.13;7.65;;;;;;;-1.33;66.87;101249.44;5087847;28;20116;-51
2023/01/22 05:55:33;;;;;;;19.67;6.93;;;;;;;-1.30;66.98;101255.53;5087687;28;20097;-48
2023/01/22 05:58:00;;;;;;;20.58;7.75;;;;;;;-1.30;67.03;101262.31;5050064;28;20034;-50
2023/01/22 06:00:27;;;;;;;17.60;7.63;;;;;;;-1.33;66.98;101262.22;5067218;28;20124;-48
2023/01/22 06:02:59;;;;;;;21.33;8.20;;;;;;;-1.35;67.02;101266.38;5067415;28;20044;-50
2023/01/22 06:05:26;;;;;;;17.83;7.45;;;;;;;-1.51;67.03;101236.84;5068639;28;20458;-47
2023/01/22 06:08:00;;;;;;;18.45;7.40;;;;;;;-1.35;66.92;101276.56;5070674;28;20075;-47
2023/01/22 06:10:31;;;;;;;19.88;7.55;;;;;;;-1.39;67.16;101270.50;5067223;28;20044;-50
2023/01/22 06:12:57;;;;;;;21.00;8.00;;;;;;;-1.43;67.03;101263.53;5084299;28;20041;-47
2023/01/22 06:15:23;;;;;;;24.60;8.90;;;;;;;-1.25;66.81;101290.56;5068508;28;20045;-50
2023/01/22 06:18:00;;;;;;;20.33;7.30;;;;;;;-1.26;67.13;101263.31;5056787;28;20040;-48
2023/01/22 06:20:26;;;;;;;19.77;8.07;;;;;;;-1.10;66.49;101288.63;5053966;28;20044;-47
2023/01/22 06:22:52;;;;;;;18.10;8.30;;;;;;;-1.05;66.52;101293.09;5080593;28;20118;-50
2023/01/22 06:25:19;;;;;;;24.75;8.60;;;;;;;-1.02;66.36;101294.88;5092082;28;20135;-52
2023/01/22 06:28:08;;;;;;;;;;;;;;;-1.07;66.55;101299.81;5078458;28;20086;-48
2023/01/22 06:30:35;;;;;;;23.52;8.23;;;;;;;-1.12;66.47;101295.34;5079077;28;20038;-48
2023/01/22 06:33:02;;;;;;;18.33;5.80;;;;;;;-0.98;66.53;101310.34;5073960;28;20040;-48
2023/01/22 06:35:28;;;;;;;24.02;8.00;;;;;;;-0.95;66.86;101307.94;5061359;28;20055;-47
2023/01/22 06:37:55;;;;;;;18.08;6.78;;;;;;;-0.86;66.44;101321.03;5070993;28;20052;-50
2023/01/22 06:40:22;;;;;;;19.00;7.28;;;;;;;-0.90;66.45;101321.75;5086943;28;20079;-47
2023/01/22 06:42:49;;;;;;;23.52;7.93;;;;;;;-0.89;66.32;101323.47;5087284;28;20036;-47
2023/01/22 06:45:16;;;;;;;21.02;8.73;;;;;;;-1.05;66.38;101298.19;5074614;28;20036;-48
2023/01/22 06:47:47;;;;;;;24.48;8.23;;;;;;;-1.01;66.09;101302.59;5074017;28;20587;-47
2023/01/22 06:50:14;;;;;;;22.85;7.10;;;;;;;-1.13;66.78;101293.59;5074066;28;20129;-49
2023/01/22 06:52:40;;;;;;;19.08;8.10;;;;;;;-0.79;66.68;101336.59;5077848;28;20040;-49
2023/01/22 06:55:07;;;;;;;22.90;8.35;;;;;;;-0.69;66.23;101342.09;5074355;28;20047;-48
2023/01/22 06:57:36;;;;;;;;;;;;;;;-0.56;65.67;101345.97;5091707;28;20444;-46
2023/01/22 07:00:03;;;;;;;16.85;6.50;;;;;;;-0.79;65.91;101351.91;5091748;28;20071;-49
2023/01/22 07:02:30;;;;;;;21.38;8.65;;;;;;;-0.86;66.11;101343.16;5092566;28;20688;-50
2023/01/22 07:04:57;;;;;;;24.17;9.15;;;;;;;-0.81;66.19;101349.28;5096442;28;20533;-50
2023/01/22 07:07:23;;;;;;;21.73;8.90;;;;;;;-0.72;66.59;101346.19;5089354;28;20036;-50
2023/01/22 07:09:48;;;;;;;22.10;9.07;;;;;;;-0.73;66.20;101326.63;5088577;28;20155;-46
2023/01/22 07:12:14;;;;;;;18.30;8.50;;;;;;;-0.66;65.86;101338.78;5090962;28;20067;-51
2023/01/22 07:14:40;;;;;;;18.92;7.55;;;;;;;-0.51;65.94;101370.88;5090806;28;20044;-50
2023/01/22 07:17:06;;;;;;;17.45;7.47;;;;;;;-0.66;66.40;101369.44;5098527;28;20031;-50
2023/01/22 07:19:32;;;;;;;20.63;8.20;;;;;;;-0.58;66.53;101371.47;5095554;28;20105;-52
2023/01/22 07:21:58;;;;;;;21.10;8.45;;;;;;;-0.44;65.99;101370.28;5089893;28;20042;-46
2023/01/22 07:24:24;;;;;;;30.75;8.95;;;;;;;-0.33;66.12;101367.25;5057290;28;20064;-49
2023/01/22 07:26:50;;;;;;;23.33;9.43;;;;;;;-0.10;65.98;101379.16;5072065;28;20072;-49
2023/01/22 07:29:16;;;;;;;20.88;8.35;;;;;;;-0.03;65.52;101381.13;5088841;28;21533;-51
2023/01/22 07:31:42;;;;;;;29.25;9.20;;;;;;;-0.18;65.62;101389.13;5089163;28;20040;-51
2023/01/22 07:34:07;;;;;;;25.90;8.82;;;;;;;-0.54;65.86;101345.22;5089895;28;20048;-48
2023/01/22 07:36:33;;;;;;;20.85;8.88;;;;;;;-0.21;65.94;101391.56;5090446;28;20032;-46
2023/01/22 07:39:02;;;;;;;26.85;8.93;;;;;;;-0.25;66.21;101402.50;5091487;28;20105;-50
2023/01/22 07:41:28;;;;;;;20.55;8.23;;;;;;;-0.26;66.15;101407.56;5091412;28;20565;-46
2023/01/22 07:43:59;;;;;;;21.80;8.65;;;;;;;-0.27;66.25;101404.13;5089390;28;20087;-49
2023/01/22 07:46:25;;;;;;;24.40;9.60;;;;;;;-0.25;66.59;101415.25;5091121;28;20134;-50
2023/01/22 07:48:51;;;;;;;27.85;9.27;;;;;;;-0.14;66.44;101413.97;5097260;28;20472;-49
2023/01/22 07:51:17;;;;;;;25.08;8.88;;;;;;;-0.01;66.13;101420.41;5092680;28;20048;-51
2023/01/22 07:53:43;;;;;;;23.67;9.32;;;;;;;-0.06;66.08;101412.59;5091315;28;20044;-48
2023/01/22 07:56:09;;;;;;;21.45;8.35;;;;;;;-0.19;66.05;101389.06;5091267;28;20430;-51
2023/01/22 07:58:35;;;;;;;20.95;8.00;;;;;;;-0.10;66.28;101426.06;5089283;28;20539;-50
2023/01/22 08:01:05;;;;;;;23.52;9.10;;;;;;;-0.09;66.45;101427.78;5079711;28;20040;-47
2023/01/22 08:03:32;;;;;;;33.67;10.00;;;;;;;-0.25;66.44;101391.38;5069550;28;20044;-51
2023/01/22 08:05:59;;;;;;;24.48;8.70;;;;;;;-0.04;66.67;101438.19;5069878;28;20419;-53
2023/01/22 08:08:25;;;;;;;23.55;8.93;;;;;;;0.12;66.86;101430.25;5110352;28;20032;-54
2023/01/22 08:10:51;;;;;;;24.23;9.10;;;;;;;0.42;66.01;101441.56;5111318;28;20515;-57
2023/01/22 08:13:17;;;;;;;23.35;8.57;;;;;;;0.39;65.48;101438.91;5105766;28;20048;-51
2023/01/22 08:15:44;;;;;;;27.38;9.13;;;;;;;0.16;66.26;101436.38;5088347;28;20042;-50
2023/01/22 08:18:10;;;;;;;19.20;8.20;;;;;;;0.13;66.07;101449.91;5070092;28;20415;-49
2023/01/22 08:20:36;;;;;;;22.30;9.60;;;;;;;-0.01;66.41;101441.75;5100180;28;20040;-50
2023/01/22 08:23:02;;;;;;;27.52;9.32;;;;;;;0.06;66.72;101447.94;5089950;28;20047;-50
2023/01/22 08:25:29;;;;;;;28.67;9.57;;;;;;;0.06;66.62;101437.69;5061028;28;20043;-50
2023/01/22 08:27:55;;;;;;;24.50;9.10;;;;;;;-0.12;66.04;101391.03;5095712;28;20039;-54
2023/01/22 08:30:21;;;;;;;27.52;9.90;;;;;;;0.12;66.32;101443.03;5086163;28;20415;-52
2023/01/22 08:32:49;;;;;;;23.10;9.57;;;;;;;-0.05;66.06;101411.75;5083288;28;20041;-47
2023/01/22 08:35:15;;;;;;;21.70;8.93;;;;;;;0.22;66.06;101446.78;5087978;28;20036;-53
2023/01/22 08:37:44;;;;;;;17.45;7.35;;;;;;;0.19;66.23;101449.25;5087647;28;20503;-50
2023/01/22 08:40:11;;;;;;;33.20;9.38;;;;;;;0.09;66.07;101448.06;5090478;28;20044;-52
2023/01/22 08:42:39;;;;;;;25.88;10.55;;;;;;;-0.15;66.37;101430.13;5054709;28;20043;-51
2023/01/22 08:45:06;;;;;;;20.65;9.23;;;;;;;0.19;66.34;101456.94;5089197;28;20126;-53
2023/01/22 08:47:32;;;;;;;24.33;9.63;;;;;;;0.15;66.33;101471.31;5088342;28;20143;-51
2023/01/22 08:49:58;;;;;;;22.65;10.50;;;;;;;-0.17;66.50;101402.78;5106894;28;20134;-54
2023/01/22 08:52:23;;;;;;;31.02;9.65;;;;;;;0.18;66.41;101466.28;5092408;28;20499;-48
2023/01/22 08:54:49;;;;;;;26.92;10.25;;;;;;;0.19;66.33;101465.47;5090092;28;20166;-51
2023/01/22 08:57:15;;;;;;;27.73;10.05;;;;;;;0.33;66.07;101474.50;5090020;28;20048;-42
2023/01/22 08:59:41;;;;;;;22.88;9.90;;;;;;;0.23;66.49;101474.13;5096878;28;20050;-46
2023/01/22 09:02:11;;;;;;;30.15;10.23;;;;;;;0.28;66.29;101475.16;5108599;28;20059;-53
2023/01/22 09:04:37;;;;;;;24.83;10.38;;;;;;;0.36;66.58;101482.31;5072297;28;20082;-48
2023/01/22 09:07:03;;;;;;;23.58;9.10;;;;;;;0.39;66.60;101478.97;5098435;28;20062;-46
2023/01/22 09:09:29;;;;;;;25.40;9.82;;;;;;;0.53;66.29;101479.44;5061657;28;20419;-46
2023/01/22 09:11:55;;;;;;;18.52;7.85;;;;;;;0.34;66.32;101481.38;5097290;28;20052;-51
2023/01/22 09:14:21;;;;;;;23.77;9.10;;;;;;;0.36;66.34;101491.66;5102793;28;20401;-50
2023/01/22 09:16:47;;;;;;;22.27;9.38;;;;;;;0.39;66.44;101484.09;5101303;28;20048;-50
2023/01/22 09:19:13;;;;;;;21.92;9.75;;;;;;;0.48;66.20;101489.50;5106291;28;20534;-50
2023/01/22 09:21:39;;;;;;;24.27;9.82;;;;;;;0.72;65.96;101497.19;5104603;28;20088;-51
2023/01/22 09:24:06;;;;;;;23.15;9.52;;;;;;;0.52;65.81;101475.16;5090016;28;20519;-51
2023/01/22 09:26:32;;;;;;;26.23;10.18;;;;;;;0.16;66.02;101434.66;5089944;28;20043;-50
2023/01/22 09:29:04;;;;;;;26.30;11.10;;;;;;;0.61;65.95;101495.94;5095117;28;20130;-49
2023/01/22 09:31:32;;;;;;;27.08;10.30;;;;;;;0.41;65.94;101465.44;5085772;28;20031;-53
2023/01/22 09:33:58;;;;;;;23.23;9.73;;;;;;;0.59;65.97;101495.00;5065974;28;20090;-50
2023/01/22 09:36:24;;;;;;;24.30;9.70;;;;;;;0.65;66.07;101502.91;5083136;28;20162;-51
2023/01/22 09:38:50;;;;;;;22.90;10.52;;;;;;;0.63;66.18;101502.84;5092270;28;20063;-47
2023/01/22 09:41:29;;;;;;;25.55;9.88;;;;;;;0.67;65.93;101507.28;5102179;28;20495;-48
2023/01/22 09:44:02;;;;;;;25.42;9.23;;;;;;;0.73;65.58;101501.50;5063317;28;20669;-48
2023/01/22 09:46:56;;;;;;;27.20;10.77;;;;;;;0.71;65.56;101510.81;5089872;28;20040;-46
2023/01/22 09:49:55;;;;;;;22.85;10.00;;;;;;;0.90;65.65;101509.72;5085229;28;20041;-46
2023/01/22 09:52:25;;;;;;;25.67;10.10;;;;;;;0.70;65.24;101481.78;5073252;28;20127;-43
2023/01/22 09:54:51;;;;;;;;;;;;;;;0.77;65.35;101508.47;5077751;28;20124;-50
2023/01/22 09:57:17;;;;;;;26.65;9.00;;;;;;;0.82;65.43;101519.72;5103047;28;19915;-50
2023/01/22 09:59:49;;;;;;;26.08;8.95;;;;;;;0.84;65.42;101512.94;5079479;28;20076;-49
2023/01/22 10:02:37;;;;;;;22.17;9.07;;;;;;;0.78;65.24;101516.19;5098039;28;20039;-49
2023/01/22 10:05:17;;;;;;;25.50;10.50;;;;;;;0.81;65.18;101515.41;5092658;28;20040;-48
2023/01/22 10:07:48;;;;;;;28.77;10.02;;;;;;;0.93;65.15;101502.16;5054903;28;20036;-47
2023/01/22 10:10:27;;;;;;;26.25;10.02;;;;;;;0.84;65.54;101503.56;5082284;28;20027;-48
2023/01/22 10:13:15;;;;;;;23.27;10.88;;;;;;;0.74;65.27;101506.66;5067205;28;20075;-47
2023/01/22 10:15:42;;;;;;;26.27;10.02;;;;;;;0.81;65.60;101507.72;5087634;28;20146;-49
2023/01/22 10:18:19;;;;;;;32.58;10.75;;;;;;;0.80;65.51;101508.53;5073816;28;20040;-51
2023/01/22 10:20:45;;;;;;;25.80;10.38;;;;;;;0.81;65.25;101507.72;5103792;28;20036;-53
2023/01/22 10:23:18;;;;;;;26.70;10.27;;;;;;;1.00;65.24;101502.41;5087655;28;20046;-50
2023/01/22 10:25:44;;;;;;;25.20;9.88;;;;;;;1.06;64.83;101506.84;5103760;28;20050;-52
2023/01/22 10:28:11;;;;;;;20.98;9.85;;;;;;;1.16;65.00;101501.22;5102824;28;20044;-50
2023/01/22 10:30:47;;;;;;;27.67;11.65;;;;;;;1.18;64.81;101507.28;5106129;28;20071;-48
2023/01/22 10:33:21;;;;;;;25.90;11.07;;;;;;;0.94;64.95;101497.09;5088655;28;20036;-48
2023/01/22 10:35:55;;;;;;;23.85;10.20;;;;;;;0.92;64.75;101498.72;5093402;28;20074;-50
2023/01/22 10:38:29;;;;;;;23.95;10.02;;;;;;;0.99;64.75;101499.81;5094390;28;20207;-48
2023/01/22 10:41:00;;;;;;;24.60;10.68;;;;;;;1.03;64.92;101505.09;5107633;28;20513;-48
2023/01/22 10:43:34;;;;;;;26.27;9.95;;;;;;;0.78;64.73;101464.13;5107720;28;20134;-49
2023/01/22 10:46:15;;;;;;;26.13;11.00;;;;;;;0.94;64.87;101503.91;5089277;28;20426;-49
2023/01/22 10:48:41;;;;;;;22.70;9.68;;;;;;;0.94;64.76;101509.03;5089259;28;20043;-50
2023/01/22 10:51:15;;;;;;;23.65;9.57;;;;;;;0.94;64.78;101511.59;5105201;28;20386;-50
2023/01/22 10:53:55;;;;;;;24.08;10.63;;;;;;;0.88;64.96;101511.38;5098128;28;20136;-51
2023/01/22 10:56:35;;;;;;;28.45;11.02;;;;;;;0.71;65.17;101482.66;5094135;28;20039;-50
2023/01/22 10:59:23;;;;;;;27.35;10.98;;;;;;;0.95;65.17;101511.63;5087971;28;20054;-49
2023/01/22 11:01:57;;;;;;;25.90;10.68;;;;;;;1.07;64.21;101483.88;5105574;28;20150;-50
2023/01/22 11:04:28;;;;;;;22.58;9.80;;;;;;;1.21;64.15;101503.09;5067899;28;20050;-49
2023/01/22 11:07:17;;;;;;;25.17;9.88;;;;;;;1.25;64.36;101511.78;5109704;28;20046;-48
2023/01/22 11:09:54;;;;;;;24.07;9.83;;;;;;;1.15;64.04;101513.16;5106043;28;20046;-51
2023/01/22 11:12:29;;;;;;;26.35;10.98;;;;;;;1.32;63.96;101505.16;5088739;28;20374;-48
2023/01/22 11:15:05;;;;;;;25.77;11.35;;;;;;;1.23;64.00;101509.16;5104236;28;20040;-50
2023/01/22 11:17:39;;;;;;;31.63;11.52;;;;;;;1.15;64.13;101509.75;5077261;28;20154;-51
2023/01/22 11:20:26;;;;;;;29.50;12.38;;;;;;;1.03;64.38;101522.13;5087189;27;20127;-49
2023/01/22 11:23:02;;;;;;;32.33;11.50;;;;;;;0.99;64.47;101512.63;5103687;28;20134;-49
2023/01/22 11:25:36;;;;;;;22.92;10.02;;;;;;;0.99;64.34;101497.25;5108017;28;20051;-49
2023/01/22 11:28:12;;;;;;;24.65;10.00;;;;;;;0.87;64.92;101501.94;5070684;28;20051;-52
2023/01/22 11:31:01;;;;;;;28.75;10.68;;;;;;;1.14;64.98;101502.88;5108895;28;20035;-46
2023/01/22 11:33:33;;;;;;;27.35;11.93;;;;;;;1.25;64.29;101506.66;5081165;28;20508;-49
2023/01/22 11:36:20;;;;;;;24.08;9.93;;;;;;;1.56;64.14;101511.06;5088352;28;20040;-47
2023/01/22 11:38:51;;;;;;;22.83;10.05;;;;;;;1.77;63.51;101504.03;5110398;27;20154;-48